sensor_id;sensor_type;location;lat;lon;timestamp;P1;durP1;ratioP1;P2;durP2;ratioP2
46036;SDS011;31769;49.304;8.428;2023-04-19T00:00:55;13.15;;;11.75;;
46036;SDS011;31769;49.304;8.428;2023-04-19T00:03:56;10.90;;;9.90;;
46036;SDS011;31769;49.304;8.428;2023-04-19T00:06:57;11.93;;;10.73;;
46036;SDS011;31769;49.304;8.428;2023-04-19T00:09:58;12.73;;;11.50;;
46036;SDS011;31769;49.304;8.428;2023-04-19T00:12:58;12.40;;;11.10;;
46036;SDS011;31769;49.304;8.428;2023-04-19T00:15:59;13.30;;;11.13;;
46036;SDS011;31769;49.304;8.428;2023-04-19T00:19:00;12.25;;;10.95;;
46036;SDS011;31769;49.304;8.428;2023-04-19T00:22:00;15.50;;;11.63;;
46036;SDS011;31769;49.304;8.428;2023-04-19T00:25:01;12.43;;;11.13;;
46036;SDS011;31769;49.304;8.428;2023-04-19T00:28:02;11.80;;;10.60;;
46036;SDS011;31769;49.304;8.428;2023-04-19T00:31:03;12.73;;;11.48;;
46036;SDS011;31769;49.304;8.428;2023-04-19T00:34:04;12.70;;;11.45;;
46036;SDS011;31769;49.304;8.428;2023-04-19T00:37:07;12.43;;;11.23;;
46036;SDS011;31769;49.304;8.428;2023-04-19T00:40:08;13.05;;;11.85;;
46036;SDS011;31769;49.304;8.428;2023-04-19T00:43:10;13.45;;;11.43;;
46036;SDS011;31769;49.304;8.428;2023-04-19T00:46:11;12.68;;;11.48;;
46036;SDS011;31769;49.304;8.428;2023-04-19T00:49:13;12.65;;;11.45;;
46036;SDS011;31769;49.304;8.428;2023-04-19T00:52:14;12.75;;;11.55;;
46036;SDS011;31769;49.304;8.428;2023-04-19T00:55:15;12.63;;;11.35;;
46036;SDS011;31769;49.304;8.428;2023-04-19T00:58:16;11.50;;;10.50;;
46036;SDS011;31769;49.304;8.428;2023-04-19T01:01:17;11.60;;;10.50;;
46036;SDS011;31769;49.304;8.428;2023-04-19T01:04:18;12.75;;;11.43;;
46036;SDS011;31769;49.304;8.428;2023-04-19T01:07:20;12.02;;;10.93;;
46036;SDS011;31769;49.304;8.428;2023-04-19T01:10:20;12.35;;;11.15;;
46036;SDS011;31769;49.304;8.428;2023-04-19T01:13:23;12.60;;;11.25;;
46036;SDS011;31769;49.304;8.428;2023-04-19T01:16:27;13.00;;;11.57;;
46036;SDS011;31769;49.304;8.428;2023-04-19T01:19:28;13.60;;;12.18;;
46036;SDS011;31769;49.304;8.428;2023-04-19T01:22:30;13.00;;;11.70;;
46036;SDS011;31769;49.304;8.428;2023-04-19T01:25:31;12.82;;;11.63;;
46036;SDS011;31769;49.304;8.428;2023-04-19T01:28:33;12.38;;;11.18;;
46036;SDS011;31769;49.304;8.428;2023-04-19T01:31:33;12.93;;;11.52;;
46036;SDS011;31769;49.304;8.428;2023-04-19T01:34:34;13.15;;;11.20;;
46036;SDS011;31769;49.304;8.428;2023-04-19T01:37:37;11.23;;;10.23;;
46036;SDS011;31769;49.304;8.428;2023-04-19T01:40:38;11.85;;;10.75;;
46036;SDS011;31769;49.304;8.428;2023-04-19T01:43:39;12.43;;;11.25;;
46036;SDS011;31769;49.304;8.428;2023-04-19T01:46:39;11.65;;;10.52;;
46036;SDS011;31769;49.304;8.428;2023-04-19T01:49:41;11.60;;;10.50;;
46036;SDS011;31769;49.304;8.428;2023-04-19T01:52:42;12.10;;;10.85;;
46036;SDS011;31769;49.304;8.428;2023-04-19T01:55:44;12.30;;;11.10;;
46036;SDS011;31769;49.304;8.428;2023-04-19T01:58:45;13.32;;;11.93;;
46036;SDS011;31769;49.304;8.428;2023-04-19T02:01:45;11.93;;;10.73;;
46036;SDS011;31769;49.304;8.428;2023-04-19T02:04:46;11.80;;;10.60;;
46036;SDS011;31769;49.304;8.428;2023-04-19T02:07:47;13.80;;;11.48;;
46036;SDS011;31769;49.304;8.428;2023-04-19T02:10:47;12.07;;;10.80;;
46036;SDS011;31769;49.304;8.428;2023-04-19T02:13:48;11.93;;;10.73;;
46036;SDS011;31769;49.304;8.428;2023-04-19T02:16:49;11.88;;;10.15;;
46036;SDS011;31769;49.304;8.428;2023-04-19T02:19:49;11.88;;;10.63;;
46036;SDS011;31769;49.304;8.428;2023-04-19T02:22:50;11.73;;;10.52;;
46036;SDS011;31769;49.304;8.428;2023-04-19T02:25:51;12.82;;;11.40;;
46036;SDS011;31769;49.304;8.428;2023-04-19T02:28:52;14.07;;;11.07;;
46036;SDS011;31769;49.304;8.428;2023-04-19T02:31:53;11.93;;;10.63;;
46036;SDS011;31769;49.304;8.428;2023-04-19T02:34:53;12.35;;;11.07;;
46036;SDS011;31769;49.304;8.428;2023-04-19T02:37:54;12.30;;;10.88;;
46036;SDS011;31769;49.304;8.428;2023-04-19T02:40:55;11.07;;;9.98;;
46036;SDS011;31769;49.304;8.428;2023-04-19T02:43:55;11.65;;;10.45;;
46036;SDS011;31769;49.304;8.428;2023-04-19T02:46:56;11.32;;;10.23;;
46036;SDS011;31769;49.304;8.428;2023-04-19T02:49:56;10.90;;;9.80;;
46036;SDS011;31769;49.304;8.428;2023-04-19T02:52:58;12.15;;;10.13;;
46036;SDS011;31769;49.304;8.428;2023-04-19T02:56:01;12.18;;;10.98;;
46036;SDS011;31769;49.304;8.428;2023-04-19T02:59:03;11.52;;;10.32;;
46036;SDS011;31769;49.304;8.428;2023-04-19T03:02:04;10.98;;;9.52;;
46036;SDS011;31769;49.304;8.428;2023-04-19T03:05:05;12.25;;;9.90;;
46036;SDS011;31769;49.304;8.428;2023-04-19T03:08:06;10.68;;;9.48;;
46036;SDS011;31769;49.304;8.428;2023-04-19T03:11:07;11.88;;;10.05;;
46036;SDS011;31769;49.304;8.428;2023-04-19T03:14:07;10.57;;;9.57;;
46036;SDS011;31769;49.304;8.428;2023-04-19T03:17:11;10.48;;;9.40;;
46036;SDS011;31769;49.304;8.428;2023-04-19T03:20:12;11.32;;;9.52;;
46036;SDS011;31769;49.304;8.428;2023-04-19T03:23:13;11.60;;;10.15;;
46036;SDS011;31769;49.304;8.428;2023-04-19T03:26:15;10.93;;;9.85;;
46036;SDS011;31769;49.304;8.428;2023-04-19T03:29:18;10.88;;;9.52;;
46036;SDS011;31769;49.304;8.428;2023-04-19T03:32:25;10.18;;;9.18;;
46036;SDS011;31769;49.304;8.428;2023-04-19T03:35:26;10.23;;;9.23;;
46036;SDS011;31769;49.304;8.428;2023-04-19T03:38:31;10.90;;;9.90;;
46036;SDS011;31769;49.304;8.428;2023-04-19T03:41:33;10.88;;;9.77;;
46036;SDS011;31769;49.304;8.428;2023-04-19T03:44:51;11.15;;;9.77;;
46036;SDS011;31769;49.304;8.428;2023-04-19T03:47:52;10.98;;;9.27;;
46036;SDS011;31769;49.304;8.428;2023-04-19T03:50:53;11.20;;;10.18;;
46036;SDS011;31769;49.304;8.428;2023-04-19T03:53:54;11.38;;;10.23;;
46036;SDS011;31769;49.304;8.428;2023-04-19T03:56:55;10.70;;;9.60;;
46036;SDS011;31769;49.304;8.428;2023-04-19T03:59:56;11.25;;;10.07;;
46036;SDS011;31769;49.304;8.428;2023-04-19T04:02:57;11.27;;;10.10;;
46036;SDS011;31769;49.304;8.428;2023-04-19T04:05:57;11.82;;;10.50;;
46036;SDS011;31769;49.304;8.428;2023-04-19T04:08:59;11.05;;;9.95;;
46036;SDS011;31769;49.304;8.428;2023-04-19T04:12:00;10.90;;;9.80;;
46036;SDS011;31769;49.304;8.428;2023-04-19T04:15:01;12.02;;;10.57;;
46036;SDS011;31769;49.304;8.428;2023-04-19T04:18:02;11.18;;;10.10;;
46036;SDS011;31769;49.304;8.428;2023-04-19T04:21:03;15.80;;;12.10;;
46036;SDS011;31769;49.304;8.428;2023-04-19T04:24:04;12.60;;;11.02;;
46036;SDS011;31769;49.304;8.428;2023-04-19T04:27:13;11.93;;;10.73;;
46036;SDS011;31769;49.304;8.428;2023-04-19T04:30:19;12.02;;;10.77;;
46036;SDS011;31769;49.304;8.428;2023-04-19T04:33:19;11.38;;;10.27;;
46036;SDS011;31769;49.304;8.428;2023-04-19T04:36:21;18.73;;;13.98;;
46036;SDS011;31769;49.304;8.428;2023-04-19T04:39:23;20.13;;;17.80;;
46036;SDS011;31769;49.304;8.428;2023-04-19T04:42:24;13.85;;;11.77;;
46036;SDS011;31769;49.304;8.428;2023-04-19T04:45:26;12.15;;;10.57;;
46036;SDS011;31769;49.304;8.428;2023-04-19T04:48:28;13.68;;;10.95;;
46036;SDS011;31769;49.304;8.428;2023-04-19T04:51:30;11.30;;;10.20;;
46036;SDS011;31769;49.304;8.428;2023-04-19T04:54:32;12.95;;;11.43;;
46036;SDS011;31769;49.304;8.428;2023-04-19T04:57:33;11.68;;;10.57;;
46036;SDS011;31769;49.304;8.428;2023-04-19T05:02:17;11.35;;;10.38;;
46036;SDS011;31769;49.304;8.428;2023-04-19T05:05:19;12.32;;;11.02;;
46036;SDS011;31769;49.304;8.428;2023-04-19T05:08:19;12.07;;;11.00;;
46036;SDS011;31769;49.304;8.428;2023-04-19T05:11:21;11.98;;;10.85;;
46036;SDS011;31769;49.304;8.428;2023-04-19T05:14:22;11.35;;;10.25;;
46036;SDS011;31769;49.304;8.428;2023-04-19T05:17:24;12.65;;;11.05;;
46036;SDS011;31769;49.304;8.428;2023-04-19T05:20:25;11.13;;;10.02;;
46036;SDS011;31769;49.304;8.428;2023-04-19T05:23:35;12.10;;;11.00;;
46036;SDS011;31769;49.304;8.428;2023-04-19T05:26:37;11.30;;;10.27;;
46036;SDS011;31769;49.304;8.428;2023-04-19T05:29:40;10.85;;;9.80;;
46036;SDS011;31769;49.304;8.428;2023-04-19T05:32:41;11.25;;;10.25;;
46036;SDS011;31769;49.304;8.428;2023-04-19T05:35:44;11.77;;;10.02;;
46036;SDS011;31769;49.304;8.428;2023-04-19T05:38:44;13.90;;;10.23;;
46036;SDS011;31769;49.304;8.428;2023-04-19T05:41:45;11.80;;;10.65;;
46036;SDS011;31769;49.304;8.428;2023-04-19T05:44:47;12.38;;;10.95;;
46036;SDS011;31769;49.304;8.428;2023-04-19T05:47:48;11.55;;;10.45;;
46036;SDS011;31769;49.304;8.428;2023-04-19T05:51:07;11.68;;;10.57;;
46036;SDS011;31769;49.304;8.428;2023-04-19T05:54:25;13.35;;;10.98;;
46036;SDS011;31769;49.304;8.428;2023-04-19T05:57:27;12.77;;;10.60;;
46036;SDS011;31769;49.304;8.428;2023-04-19T06:00:27;11.82;;;10.32;;
46036;SDS011;31769;49.304;8.428;2023-04-19T06:03:35;11.02;;;9.93;;
46036;SDS011;31769;49.304;8.428;2023-04-19T06:06:35;10.95;;;9.95;;
46036;SDS011;31769;49.304;8.428;2023-04-19T06:09:37;10.60;;;9.60;;
46036;SDS011;31769;49.304;8.428;2023-04-19T06:12:37;11.68;;;10.48;;
46036;SDS011;31769;49.304;8.428;2023-04-19T06:15:38;11.75;;;10.65;;
46036;SDS011;31769;49.304;8.428;2023-04-19T06:18:39;13.90;;;10.77;;
46036;SDS011;31769;49.304;8.428;2023-04-19T06:21:42;12.27;;;11.00;;
46036;SDS011;31769;49.304;8.428;2023-04-19T06:24:43;15.57;;;11.80;;
46036;SDS011;31769;49.304;8.428;2023-04-19T06:27:45;12.00;;;10.77;;
46036;SDS011;31769;49.304;8.428;2023-04-19T06:30:45;11.77;;;10.57;;
46036;SDS011;31769;49.304;8.428;2023-04-19T06:33:47;11.80;;;10.60;;
46036;SDS011;31769;49.304;8.428;2023-04-19T06:36:47;11.40;;;10.20;;
46036;SDS011;31769;49.304;8.428;2023-04-19T06:39:48;13.93;;;11.05;;
46036;SDS011;31769;49.304;8.428;2023-04-19T06:42:49;13.00;;;11.18;;
46036;SDS011;31769;49.304;8.428;2023-04-19T06:45:59;11.48;;;10.35;;
46036;SDS011;31769;49.304;8.428;2023-04-19T06:49:01;12.60;;;10.75;;
46036;SDS011;31769;49.304;8.428;2023-04-19T06:52:02;14.70;;;10.57;;
46036;SDS011;31769;49.304;8.428;2023-04-19T06:55:03;14.52;;;10.40;;
46036;SDS011;31769;49.304;8.428;2023-04-19T06:58:08;12.50;;;10.13;;
46036;SDS011;31769;49.304;8.428;2023-04-19T07:01:09;10.85;;;9.75;;
46036;SDS011;31769;49.304;8.428;2023-04-19T07:04:11;11.65;;;10.25;;
46036;SDS011;31769;49.304;8.428;2023-04-19T07:07:12;12.20;;;10.00;;
46036;SDS011;31769;49.304;8.428;2023-04-19T07:10:13;11.00;;;9.77;;
46036;SDS011;31769;49.304;8.428;2023-04-19T07:13:13;13.27;;;9.52;;
46036;SDS011;31769;49.304;8.428;2023-04-19T07:16:14;14.75;;;10.20;;
46036;SDS011;31769;49.304;8.428;2023-04-19T07:19:15;10.30;;;9.30;;
46036;SDS011;31769;49.304;8.428;2023-04-19T07:22:18;11.73;;;9.75;;
46036;SDS011;31769;49.304;8.428;2023-04-19T07:25:18;10.32;;;9.23;;
46036;SDS011;31769;49.304;8.428;2023-04-19T07:28:19;12.23;;;9.90;;
46036;SDS011;31769;49.304;8.428;2023-04-19T07:31:20;11.02;;;9.95;;
46036;SDS011;31769;49.304;8.428;2023-04-19T07:34:21;11.52;;;10.32;;
46036;SDS011;31769;49.304;8.428;2023-04-19T07:37:21;10.02;;;9.05;;
46036;SDS011;31769;49.304;8.428;2023-04-19T07:40:22;12.70;;;9.82;;
46036;SDS011;31769;49.304;8.428;2023-04-19T07:43:23;11.55;;;9.75;;
46036;SDS011;31769;49.304;8.428;2023-04-19T07:46:23;10.40;;;9.32;;
46036;SDS011;31769;49.304;8.428;2023-04-19T07:49:24;11.25;;;10.05;;
46036;SDS011;31769;49.304;8.428;2023-04-19T07:52:25;10.75;;;9.60;;
46036;SDS011;31769;49.304;8.428;2023-04-19T07:55:25;11.55;;;9.30;;
46036;SDS011;31769;49.304;8.428;2023-04-19T07:58:26;9.23;;;8.02;;
46036;SDS011;31769;49.304;8.428;2023-04-19T08:01:28;10.63;;;8.43;;
46036;SDS011;31769;49.304;8.428;2023-04-19T08:04:29;10.85;;;8.93;;
46036;SDS011;31769;49.304;8.428;2023-04-19T08:07:29;10.05;;;8.90;;
46036;SDS011;31769;49.304;8.428;2023-04-19T08:10:30;10.20;;;8.77;;
46036;SDS011;31769;49.304;8.428;2023-04-19T08:13:31;9.57;;;8.38;;
46036;SDS011;31769;49.304;8.428;2023-04-19T08:16:31;10.23;;;8.73;;
46036;SDS011;31769;49.304;8.428;2023-04-19T08:19:33;11.38;;;9.63;;
46036;SDS011;31769;49.304;8.428;2023-04-19T08:22:33;11.77;;;9.85;;
46036;SDS011;31769;49.304;8.428;2023-04-19T08:25:34;11.32;;;10.20;;
46036;SDS011;31769;49.304;8.428;2023-04-19T08:28:35;13.35;;;10.57;;
46036;SDS011;31769;49.304;8.428;2023-04-19T08:31:35;12.13;;;9.80;;
46036;SDS011;31769;49.304;8.428;2023-04-19T08:34:37;10.48;;;9.35;;
46036;SDS011;31769;49.304;8.428;2023-04-19T08:37:38;10.30;;;9.23;;
46036;SDS011;31769;49.304;8.428;2023-04-19T08:40:40;10.20;;;9.20;;
46036;SDS011;31769;49.304;8.428;2023-04-19T08:46:50;13.63;;;10.52;;
46036;SDS011;31769;49.304;8.428;2023-04-19T08:49:53;11.50;;;10.30;;
46036;SDS011;31769;49.304;8.428;2023-04-19T08:52:57;10.48;;;9.38;;
46036;SDS011;31769;49.304;8.428;2023-04-19T08:55:59;10.23;;;9.20;;
46036;SDS011;31769;49.304;8.428;2023-04-19T08:59:01;10.65;;;8.40;;
46036;SDS011;31769;49.304;8.428;2023-04-19T09:02:01;8.18;;;7.38;;
46036;SDS011;31769;49.304;8.428;2023-04-19T09:05:02;9.98;;;8.00;;
46036;SDS011;31769;49.304;8.428;2023-04-19T09:11:38;8.77;;;7.95;;
46036;SDS011;31769;49.304;8.428;2023-04-19T09:14:41;10.40;;;8.70;;
46036;SDS011;31769;49.304;8.428;2023-04-19T09:17:45;8.35;;;7.55;;
46036;SDS011;31769;49.304;8.428;2023-04-19T09:21:06;8.18;;;7.40;;
46036;SDS011;31769;49.304;8.428;2023-04-19T09:24:07;8.23;;;7.15;;
46036;SDS011;31769;49.304;8.428;2023-04-19T09:27:08;8.93;;;8.00;;
46036;SDS011;31769;49.304;8.428;2023-04-19T09:30:12;8.50;;;6.90;;
46036;SDS011;31769;49.304;8.428;2023-04-19T09:33:13;7.88;;;7.07;;
46036;SDS011;31769;49.304;8.428;2023-04-19T09:36:31;7.78;;;6.95;;
46036;SDS011;31769;49.304;8.428;2023-04-19T09:39:32;5.80;;;5.28;;
46036;SDS011;31769;49.304;8.428;2023-04-19T09:42:43;6.63;;;5.90;;
46036;SDS011;31769;49.304;8.428;2023-04-19T09:45:45;7.50;;;6.03;;
46036;SDS011;31769;49.304;8.428;2023-04-19T09:48:46;6.43;;;5.82;;
46036;SDS011;31769;49.304;8.428;2023-04-19T09:51:47;5.95;;;5.35;;
46036;SDS011;31769;49.304;8.428;2023-04-19T09:54:52;6.07;;;5.50;;
46036;SDS011;31769;49.304;8.428;2023-04-19T09:57:54;6.35;;;5.70;;
46036;SDS011;31769;49.304;8.428;2023-04-19T10:00:55;5.68;;;5.18;;
46036;SDS011;31769;49.304;8.428;2023-04-19T10:03:58;5.97;;;5.38;;
46036;SDS011;31769;49.304;8.428;2023-04-19T10:06:59;10.50;;;5.28;;
46036;SDS011;31769;49.304;8.428;2023-04-19T10:10:00;5.63;;;5.13;;
46036;SDS011;31769;49.304;8.428;2023-04-19T10:13:03;7.43;;;6.38;;
46036;SDS011;31769;49.304;8.428;2023-04-19T10:16:06;6.78;;;6.18;;
46036;SDS011;31769;49.304;8.428;2023-04-19T10:19:08;7.50;;;6.38;;
46036;SDS011;31769;49.304;8.428;2023-04-19T10:22:11;7.72;;;6.93;;
46036;SDS011;31769;49.304;8.428;2023-04-19T10:25:13;8.70;;;7.80;;
46036;SDS011;31769;49.304;8.428;2023-04-19T10:28:16;8.73;;;7.88;;
46036;SDS011;31769;49.304;8.428;2023-04-19T10:31:18;8.30;;;7.30;;
46036;SDS011;31769;49.304;8.428;2023-04-19T10:34:40;8.88;;;7.43;;
46036;SDS011;31769;49.304;8.428;2023-04-19T10:38:00;9.60;;;8.60;;
46036;SDS011;31769;49.304;8.428;2023-04-19T10:41:05;10.60;;;9.02;;
46036;SDS011;31769;49.304;8.428;2023-04-19T10:44:10;9.77;;;8.82;;
46036;SDS011;31769;49.304;8.428;2023-04-19T10:47:11;13.65;;;10.00;;
46036;SDS011;31769;49.304;8.428;2023-04-19T10:50:15;12.45;;;10.35;;
46036;SDS011;31769;49.304;8.428;2023-04-19T10:59:47;12.82;;;11.25;;
46036;SDS011;31769;49.304;8.428;2023-04-19T11:09:53;14.38;;;11.32;;
46036;SDS011;31769;49.304;8.428;2023-04-19T11:12:53;15.43;;;10.25;;
46036;SDS011;31769;49.304;8.428;2023-04-19T11:15:57;11.15;;;9.90;;
46036;SDS011;31769;49.304;8.428;2023-04-19T11:18:58;13.00;;;10.10;;
46036;SDS011;31769;49.304;8.428;2023-04-19T11:21:58;16.02;;;10.45;;
46036;SDS011;31769;49.304;8.428;2023-04-19T11:28:18;12.70;;;10.20;;
46036;SDS011;31769;49.304;8.428;2023-04-19T11:31:20;10.80;;;9.70;;
46036;SDS011;31769;49.304;8.428;2023-04-19T11:34:22;13.85;;;9.68;;
46036;SDS011;31769;49.304;8.428;2023-04-19T11:37:23;10.82;;;9.30;;
46036;SDS011;31769;49.304;8.428;2023-04-19T11:40:24;13.02;;;9.48;;
46036;SDS011;31769;49.304;8.428;2023-04-19T11:43:58;12.52;;;9.75;;
46036;SDS011;31769;49.304;8.428;2023-04-19T11:46:56;11.30;;;9.23;;
46036;SDS011;31769;49.304;8.428;2023-04-19T11:50:45;12.77;;;9.63;;
46036;SDS011;31769;49.304;8.428;2023-04-19T11:53:38;11.00;;;9.82;;
46036;SDS011;31769;49.304;8.428;2023-04-19T11:56:55;10.75;;;8.82;;
46036;SDS011;31769;49.304;8.428;2023-04-19T12:00:06;12.98;;;9.43;;
46036;SDS011;31769;49.304;8.428;2023-04-19T12:03:14;12.38;;;9.35;;
46036;SDS011;31769;49.304;8.428;2023-04-19T12:09:19;10.07;;;8.35;;
46036;SDS011;31769;49.304;8.428;2023-04-19T12:12:32;9.88;;;8.30;;
46036;SDS011;31769;49.304;8.428;2023-04-19T12:15:40;9.57;;;8.30;;
46036;SDS011;31769;49.304;8.428;2023-04-19T12:18:44;8.32;;;7.53;;
46036;SDS011;31769;49.304;8.428;2023-04-19T12:21:48;10.88;;;8.02;;
46036;SDS011;31769;49.304;8.428;2023-04-19T12:24:52;12.00;;;10.77;;
46036;SDS011;31769;49.304;8.428;2023-04-19T12:27:53;19.38;;;11.93;;
46036;SDS011;31769;49.304;8.428;2023-04-19T12:30:54;10.02;;;7.95;;
46036;SDS011;31769;49.304;8.428;2023-04-19T12:33:54;10.27;;;7.68;;
46036;SDS011;31769;49.304;8.428;2023-04-19T12:36:55;8.20;;;7.38;;
46036;SDS011;31769;49.304;8.428;2023-04-19T12:39:56;7.82;;;7.10;;
46036;SDS011;31769;49.304;8.428;2023-04-19T12:42:56;8.57;;;6.40;;
46036;SDS011;31769;49.304;8.428;2023-04-19T12:45:57;7.05;;;6.45;;
46036;SDS011;31769;49.304;8.428;2023-04-19T12:48:58;8.77;;;6.28;;
46036;SDS011;31769;49.304;8.428;2023-04-19T12:51:59;9.50;;;6.30;;
46036;SDS011;31769;49.304;8.428;2023-04-19T12:55:00;9.80;;;6.40;;
46036;SDS011;31769;49.304;8.428;2023-04-19T12:58:01;6.43;;;5.28;;
46036;SDS011;31769;49.304;8.428;2023-04-19T13:01:01;6.28;;;4.82;;
46036;SDS011;31769;49.304;8.428;2023-04-19T13:04:02;8.63;;;5.78;;
46036;SDS011;31769;49.304;8.428;2023-04-19T13:07:03;6.75;;;5.22;;
46036;SDS011;31769;49.304;8.428;2023-04-19T13:10:03;5.72;;;4.75;;
46036;SDS011;31769;49.304;8.428;2023-04-19T13:13:05;5.68;;;4.15;;
46036;SDS011;31769;49.304;8.428;2023-04-19T13:16:06;6.40;;;3.70;;
46036;SDS011;31769;49.304;8.428;2023-04-19T13:19:06;7.22;;;4.30;;
46036;SDS011;31769;49.304;8.428;2023-04-19T13:22:07;4.10;;;3.70;;
46036;SDS011;31769;49.304;8.428;2023-04-19T13:25:08;4.47;;;3.88;;
46036;SDS011;31769;49.304;8.428;2023-04-19T13:28:08;6.63;;;4.20;;
46036;SDS011;31769;49.304;8.428;2023-04-19T13:31:09;4.88;;;4.32;;
46036;SDS011;31769;49.304;8.428;2023-04-19T13:34:10;4.15;;;3.75;;
46036;SDS011;31769;49.304;8.428;2023-04-19T13:37:11;4.85;;;4.45;;
46036;SDS011;31769;49.304;8.428;2023-04-19T13:40:12;8.35;;;7.20;;
46036;SDS011;31769;49.304;8.428;2023-04-19T13:43:12;4.28;;;3.70;;
46036;SDS011;31769;49.304;8.428;2023-04-19T13:46:13;4.32;;;3.30;;
46036;SDS011;31769;49.304;8.428;2023-04-19T13:49:14;4.10;;;3.63;;
46036;SDS011;31769;49.304;8.428;2023-04-19T13:52:14;4.60;;;3.22;;
46036;SDS011;31769;49.304;8.428;2023-04-19T13:55:15;4.57;;;2.03;;
46036;SDS011;31769;49.304;8.428;2023-04-19T13:58:16;5.20;;;2.67;;
46036;SDS011;31769;49.304;8.428;2023-04-19T14:01:17;3.55;;;1.90;;
46036;SDS011;31769;49.304;8.428;2023-04-19T14:04:17;2.78;;;1.90;;
46036;SDS011;31769;49.304;8.428;2023-04-19T14:07:18;3.03;;;2.00;;
46036;SDS011;31769;49.304;8.428;2023-04-19T14:10:19;4.65;;;1.88;;
46036;SDS011;31769;49.304;8.428;2023-04-19T14:13:20;4.00;;;2.20;;
46036;SDS011;31769;49.304;8.428;2023-04-19T14:16:21;2.03;;;1.80;;
46036;SDS011;31769;49.304;8.428;2023-04-19T14:19:24;2.65;;;2.10;;
46036;SDS011;31769;49.304;8.428;2023-04-19T14:22:25;4.93;;;2.60;;
46036;SDS011;31769;49.304;8.428;2023-04-19T14:25:26;5.55;;;2.72;;
46036;SDS011;31769;49.304;8.428;2023-04-19T14:28:26;5.20;;;2.90;;
46036;SDS011;31769;49.304;8.428;2023-04-19T14:31:27;4.78;;;3.20;;
46036;SDS011;31769;49.304;8.428;2023-04-19T14:34:28;5.25;;;4.03;;
46036;SDS011;31769;49.304;8.428;2023-04-19T14:37:29;8.20;;;5.72;;
46036;SDS011;31769;49.304;8.428;2023-04-19T14:40:30;9.68;;;8.57;;
46036;SDS011;31769;49.304;8.428;2023-04-19T14:43:31;12.02;;;9.55;;
46036;SDS011;31769;49.304;8.428;2023-04-19T14:46:33;10.55;;;8.63;;
46036;SDS011;31769;49.304;8.428;2023-04-19T14:53:10;10.63;;;8.70;;
46036;SDS011;31769;49.304;8.428;2023-04-19T14:56:11;10.80;;;9.70;;
46036;SDS011;31769;49.304;8.428;2023-04-19T14:59:11;9.93;;;8.60;;
46036;SDS011;31769;49.304;8.428;2023-04-19T15:02:12;9.38;;;7.90;;
46036;SDS011;31769;49.304;8.428;2023-04-19T15:05:13;9.68;;;7.95;;
46036;SDS011;31769;49.304;8.428;2023-04-19T15:08:14;15.50;;;8.80;;
46036;SDS011;31769;49.304;8.428;2023-04-19T15:11:15;10.48;;;8.57;;
46036;SDS011;31769;49.304;8.428;2023-04-19T15:14:16;10.95;;;8.15;;
46036;SDS011;31769;49.304;8.428;2023-04-19T15:17:17;10.75;;;8.93;;
46036;SDS011;31769;49.304;8.428;2023-04-19T15:20:18;15.57;;;8.88;;
46036;SDS011;31769;49.304;8.428;2023-04-19T15:23:22;10.88;;;9.45;;
46036;SDS011;31769;49.304;8.428;2023-04-19T15:26:24;10.02;;;8.63;;
46036;SDS011;31769;49.304;8.428;2023-04-19T15:29:24;9.73;;;8.73;;
46036;SDS011;31769;49.304;8.428;2023-04-19T15:32:25;10.95;;;7.53;;
46036;SDS011;31769;49.304;8.428;2023-04-19T15:35:29;11.10;;;8.25;;
46036;SDS011;31769;49.304;8.428;2023-04-19T15:38:31;10.73;;;7.22;;
46036;SDS011;31769;49.304;8.428;2023-04-19T15:41:32;7.13;;;4.70;;
46036;SDS011;31769;49.304;8.428;2023-04-19T15:44:32;6.18;;;5.57;;
46036;SDS011;31769;49.304;8.428;2023-04-19T15:47:33;6.97;;;6.28;;
46036;SDS011;31769;49.304;8.428;2023-04-19T15:50:37;5.63;;;5.13;;
46036;SDS011;31769;49.304;8.428;2023-04-19T15:53:38;5.13;;;4.22;;
46036;SDS011;31769;49.304;8.428;2023-04-19T15:56:39;5.00;;;3.20;;
46036;SDS011;31769;49.304;8.428;2023-04-19T15:59:40;5.45;;;3.22;;
46036;SDS011;31769;49.304;8.428;2023-04-19T16:02:41;3.45;;;3.13;;
46036;SDS011;31769;49.304;8.428;2023-04-19T16:05:42;2.97;;;2.70;;
46036;SDS011;31769;49.304;8.428;2023-04-19T16:08:42;2.85;;;2.05;;
46036;SDS011;31769;49.304;8.428;2023-04-19T16:11:50;2.42;;;2.28;;
46036;SDS011;31769;49.304;8.428;2023-04-19T16:14:56;2.63;;;1.50;;
46036;SDS011;31769;49.304;8.428;2023-04-19T16:17:57;0.80;;;0.80;;
46036;SDS011;31769;49.304;8.428;2023-04-19T16:20:58;1.38;;;1.00;;
46036;SDS011;31769;49.304;8.428;2023-04-19T16:23:58;0.77;;;0.70;;
46036;SDS011;31769;49.304;8.428;2023-04-19T16:27:02;1.65;;;1.20;;
46036;SDS011;31769;49.304;8.428;2023-04-19T16:30:03;1.30;;;1.10;;
46036;SDS011;31769;49.304;8.428;2023-04-19T16:33:05;1.50;;;1.40;;
46036;SDS011;31769;49.304;8.428;2023-04-19T16:36:06;2.20;;;1.10;;
46036;SDS011;31769;49.304;8.428;2023-04-19T16:39:06;2.25;;;1.23;;
46036;SDS011;31769;49.304;8.428;2023-04-19T16:42:07;2.30;;;1.42;;
46036;SDS011;31769;49.304;8.428;2023-04-19T16:45:08;1.63;;;1.52;;
46036;SDS011;31769;49.304;8.428;2023-04-19T16:48:09;1.63;;;1.52;;
46036;SDS011;31769;49.304;8.428;2023-04-19T16:51:09;1.70;;;1.60;;
46036;SDS011;31769;49.304;8.428;2023-04-19T16:54:10;2.33;;;2.08;;
46036;SDS011;31769;49.304;8.428;2023-04-19T16:57:10;2.10;;;1.80;;
46036;SDS011;31769;49.304;8.428;2023-04-19T17:00:11;2.38;;;1.73;;
46036;SDS011;31769;49.304;8.428;2023-04-19T17:03:12;6.35;;;2.05;;
46036;SDS011;31769;49.304;8.428;2023-04-19T17:06:13;1.77;;;1.60;;
46036;SDS011;31769;49.304;8.428;2023-04-19T17:09:14;3.05;;;2.85;;
46036;SDS011;31769;49.304;8.428;2023-04-19T17:12:14;3.03;;;2.17;;
46036;SDS011;31769;49.304;8.428;2023-04-19T17:15:15;2.75;;;2.03;;
46036;SDS011;31769;49.304;8.428;2023-04-19T17:18:16;2.25;;;2.05;;
46036;SDS011;31769;49.304;8.428;2023-04-19T17:21:16;2.65;;;2.45;;
46036;SDS011;31769;49.304;8.428;2023-04-19T17:24:17;3.88;;;3.42;;
46036;SDS011;31769;49.304;8.428;2023-04-19T17:27:18;3.33;;;2.60;;
46036;SDS011;31769;49.304;8.428;2023-04-19T17:30:19;4.90;;;2.95;;
46036;SDS011;31769;49.304;8.428;2023-04-19T17:33:19;7.47;;;6.78;;
46036;SDS011;31769;49.304;8.428;2023-04-19T17:36:20;3.80;;;3.40;;
46036;SDS011;31769;49.304;8.428;2023-04-19T17:39:21;2.85;;;2.53;;
46036;SDS011;31769;49.304;8.428;2023-04-19T17:42:26;3.45;;;3.17;;
46036;SDS011;31769;49.304;8.428;2023-04-19T17:45:27;3.55;;;3.00;;
46036;SDS011;31769;49.304;8.428;2023-04-19T17:48:27;5.15;;;3.00;;
46036;SDS011;31769;49.304;8.428;2023-04-19T17:51:28;3.10;;;2.65;;
46036;SDS011;31769;49.304;8.428;2023-04-19T17:54:30;2.55;;;2.35;;
46036;SDS011;31769;49.304;8.428;2023-04-19T17:57:31;2.15;;;1.88;;
46036;SDS011;31769;49.304;8.428;2023-04-19T18:00:33;2.33;;;1.60;;
46036;SDS011;31769;49.304;8.428;2023-04-19T18:03:33;2.42;;;1.30;;
46036;SDS011;31769;49.304;8.428;2023-04-19T18:06:34;1.98;;;1.20;;
46036;SDS011;31769;49.304;8.428;2023-04-19T18:09:35;3.15;;;1.20;;
46036;SDS011;31769;49.304;8.428;2023-04-19T18:12:36;2.40;;;1.40;;
46036;SDS011;31769;49.304;8.428;2023-04-19T18:15:36;3.05;;;1.20;;
46036;SDS011;31769;49.304;8.428;2023-04-19T18:18:37;2.60;;;1.45;;
46036;SDS011;31769;49.304;8.428;2023-04-19T18:21:38;2.22;;;1.40;;
46036;SDS011;31769;49.304;8.428;2023-04-19T18:24:38;1.27;;;1.17;;
46036;SDS011;31769;49.304;8.428;2023-04-19T18:27:45;1.60;;;1.42;;
46036;SDS011;31769;49.304;8.428;2023-04-19T18:30:45;3.60;;;1.38;;
46036;SDS011;31769;49.304;8.428;2023-04-19T18:33:46;4.03;;;3.10;;